createdAt,value
2023-05-08T00:02:57.338Z,7.1
2023-05-08T00:05:59.249Z,5.8
2023-05-08T00:09:01.206Z,6.6
2023-05-08T00:12:03.371Z,7.4
2023-05-08T00:15:05.129Z,7.3
2023-05-08T00:18:07.126Z,6.6
2023-05-08T00:21:09.073Z,6.8
2023-05-08T00:24:11.032Z,7
2023-05-08T00:27:13.002Z,6
2023-05-08T00:30:15.006Z,6.3
2023-05-08T00:33:16.959Z,6.5
2023-05-08T00:36:18.880Z,6.4
2023-05-08T00:39:20.837Z,6
2023-05-08T00:42:22.807Z,6.4
2023-05-08T00:45:24.828Z,7.6
2023-05-08T00:48:26.804Z,6.9
2023-05-08T00:51:28.813Z,7.2
2023-05-08T00:54:30.783Z,7.5
2023-05-08T00:57:32.773Z,6.9
2023-05-08T01:00:34.676Z,6.5
2023-05-08T01:03:36.708Z,7.2
2023-05-08T01:06:38.614Z,7.5
2023-05-08T01:09:40.564Z,7.1
2023-05-08T01:12:42.559Z,7
2023-05-08T01:15:44.497Z,7
2023-05-08T01:18:46.460Z,6.7
2023-05-08T01:21:48.424Z,6.4
2023-05-08T01:24:50.395Z,7.3
2023-05-08T01:27:52.349Z,6.7
2023-05-08T01:30:54.322Z,6.2
2023-05-08T01:33:56.319Z,6.8
2023-05-08T01:36:58.286Z,7.4
2023-05-08T01:40:00.177Z,6.2
2023-05-08T01:43:02.166Z,5.9
2023-05-08T01:46:04.097Z,7
2023-05-08T01:49:06.085Z,6.1
2023-05-08T01:52:08.033Z,6.9
2023-05-08T01:55:10.028Z,6.1
2023-05-08T01:58:11.995Z,6.1
2023-05-08T02:01:13.994Z,6.2
2023-05-08T02:04:15.918Z,7
2023-05-08T02:07:17.873Z,7
2023-05-08T02:10:19.841Z,7.4
2023-05-08T02:13:21.854Z,6.7
2023-05-08T02:16:23.761Z,7
2023-05-08T02:19:25.735Z,6.2
2023-05-08T02:22:27.684Z,7.3
2023-05-08T02:25:29.652Z,7.5
2023-05-08T02:28:31.598Z,6.8
2023-05-08T02:31:33.607Z,5.8
2023-05-08T02:34:35.538Z,6.4
2023-05-08T02:37:37.575Z,7.2
2023-05-08T02:40:39.502Z,6.7
2023-05-08T02:43:41.444Z,6.9
2023-05-08T02:46:43.400Z,6.4
2023-05-08T02:49:45.345Z,6.3
2023-05-08T02:52:47.328Z,6.5
2023-05-08T02:55:49.314Z,6.1
2023-05-08T02:58:51.264Z,6.6
2023-05-08T03:01:53.290Z,6
2023-05-08T03:04:55.210Z,6.9
2023-05-08T03:07:57.293Z,6.8
2023-05-08T03:10:59.116Z,6.7
2023-05-08T03:14:01.117Z,6.9
2023-05-08T03:17:03.061Z,6.9
2023-05-08T03:20:05.007Z,6.1
2023-05-08T03:23:07.000Z,6.8
2023-05-08T03:26:08.934Z,6.5
2023-05-08T03:29:10.887Z,7.5
2023-05-08T03:32:12.866Z,7.5
2023-05-08T03:35:14.832Z,7.3
2023-05-08T03:38:16.808Z,6.8
2023-05-08T03:41:18.763Z,7.9
2023-05-08T03:44:20.736Z,7
2023-05-08T03:47:22.789Z,7
2023-05-08T03:50:24.670Z,6.9
2023-05-08T03:53:26.646Z,6.9
2023-05-08T03:56:28.587Z,6.9
2023-05-08T03:59:30.554Z,7.2
2023-05-08T04:02:32.622Z,6.7
2023-05-08T04:05:34.571Z,6.6
2023-05-08T04:08:36.458Z,6.7
2023-05-08T04:11:38.419Z,7.4
2023-05-08T04:14:40.405Z,7.3
2023-05-08T04:17:42.385Z,7.1
2023-05-08T04:20:45.020Z,7.3
2023-05-08T04:23:46.293Z,7.7
2023-05-08T04:26:48.268Z,8.2
2023-05-08T04:29:50.220Z,6.9
2023-05-08T04:32:52.219Z,7.1
2023-05-08T04:35:54.150Z,6.3
2023-05-08T04:38:56.129Z,6.7
2023-05-08T04:41:58.170Z,6.6
2023-05-08T04:45:00.081Z,6.9
2023-05-08T04:48:02.064Z,7.4
2023-05-08T04:51:04.251Z,7.3
2023-05-08T04:54:06.032Z,6.7
2023-05-08T04:57:07.946Z,6.6
2023-05-08T05:00:09.907Z,6.7
2023-05-08T05:03:11.903Z,7.3
2023-05-08T05:06:13.801Z,7.1
2023-05-08T05:09:15.773Z,8
2023-05-08T05:12:17.724Z,7
2023-05-08T05:15:19.699Z,8
2023-05-08T05:18:21.662Z,7.1
2023-05-08T05:21:23.626Z,6.9
2023-05-08T05:24:25.585Z,8
2023-05-08T05:27:27.541Z,7.1
2023-05-08T05:30:29.510Z,7.8
2023-05-08T05:33:31.490Z,7.7
2023-05-08T05:36:33.424Z,7.4
2023-05-08T05:39:35.392Z,7.8
2023-05-08T05:42:37.391Z,7.4
2023-05-08T05:45:39.344Z,8.3
2023-05-08T05:48:41.336Z,8.9
2023-05-08T05:51:43.300Z,8.5
2023-05-08T05:54:45.250Z,9.1
2023-05-08T05:57:47.225Z,8.4
2023-05-08T06:00:49.172Z,9.4
2023-05-08T06:03:51.182Z,8.2
2023-05-08T06:06:53.101Z,8.2
2023-05-08T06:09:55.065Z,8
2023-05-08T06:12:57.177Z,7.9
2023-05-08T06:15:59.004Z,8
2023-05-08T06:19:00.961Z,7.9
2023-05-08T06:22:02.918Z,8
2023-05-08T06:25:04.873Z,9.1
2023-05-08T06:28:06.835Z,7.2
2023-05-08T06:31:08.870Z,8.7
2023-05-08T06:34:10.826Z,9.2
2023-05-08T06:37:12.717Z,8.6
2023-05-08T06:40:14.669Z,8
2023-05-08T06:43:16.653Z,8.7
2023-05-08T06:46:18.606Z,7.9
2023-05-08T06:49:20.554Z,7.9
2023-05-08T06:52:22.510Z,7.3
2023-05-08T06:55:24.470Z,7.9
2023-05-08T06:58:26.449Z,8.5
2023-05-08T07:01:28.438Z,8.4
2023-05-08T07:04:32.084Z,9
2023-05-08T07:07:32.327Z,8.7
2023-05-08T07:10:34.280Z,7.6
2023-05-08T07:13:36.341Z,7.7
2023-05-08T07:16:38.321Z,8.5
2023-05-08T07:19:40.137Z,8.1
2023-05-08T07:22:42.106Z,7.5
2023-05-08T07:25:44.070Z,8.4
2023-05-08T07:28:46.041Z,8.5
2023-05-08T07:31:48.020Z,7.9
2023-05-08T07:34:49.975Z,7.4
2023-05-08T07:37:51.925Z,7.7
2023-05-08T07:40:53.882Z,7
2023-05-08T07:43:55.845Z,7.3
2023-05-08T07:46:57.813Z,7.8
2023-05-08T07:49:59.750Z,8.1
2023-05-08T07:53:01.724Z,7.6
2023-05-08T07:56:03.699Z,8.7
2023-05-08T07:59:05.654Z,8.4
2023-05-08T08:02:07.678Z,7.8
2023-05-08T08:05:09.581Z,8.2
2023-05-08T08:08:11.571Z,6.6
2023-05-08T08:11:13.497Z,8.5
2023-05-08T08:14:15.484Z,7.9
2023-05-08T08:17:17.504Z,8.3
2023-05-08T08:20:19.400Z,7.3
2023-05-08T08:23:21.368Z,8.2
2023-05-08T08:26:23.349Z,7.7
2023-05-08T08:29:25.502Z,7.2
2023-05-08T08:32:27.291Z,7.8
2023-05-08T08:35:29.264Z,6.9
2023-05-08T08:38:31.196Z,7.7
2023-05-08T08:41:33.185Z,7.3
2023-05-08T08:44:35.138Z,7.2
2023-05-08T08:47:37.162Z,7.6
2023-05-08T08:50:39.066Z,6.9
2023-05-08T08:53:41.043Z,7.1
2023-05-08T08:56:43.069Z,6.8
2023-05-08T08:59:44.964Z,6.9
2023-05-08T09:02:47.010Z,6.6
2023-05-08T09:05:48.893Z,6.6
2023-05-08T09:08:50.869Z,7.2
2023-05-08T09:11:52.847Z,5.9
2023-05-08T09:14:54.769Z,6.9
2023-05-08T09:17:56.820Z,6.3
2023-05-08T09:20:58.720Z,6.2
2023-05-08T09:24:00.705Z,6.2
2023-05-08T09:27:02.641Z,6.4
2023-05-08T09:30:04.722Z,6.7
2023-05-08T09:33:06.616Z,7.2
2023-05-08T09:36:08.529Z,6.8
2023-05-08T09:39:10.505Z,6.5
2023-05-08T09:42:12.466Z,6.6
2023-05-08T09:45:14.638Z,6.7
2023-05-08T09:48:16.383Z,8.3
2023-05-08T09:51:18.348Z,8.4
2023-05-08T09:54:20.350Z,8.1
2023-05-08T09:57:22.263Z,7.6
2023-05-08T10:00:24.248Z,7.8
2023-05-08T10:03:26.188Z,7.6
2023-05-08T10:06:28.150Z,7.5
2023-05-08T10:09:39.228Z,8.6
2023-05-08T10:12:32.058Z,8.3
2023-05-08T10:15:34.020Z,8.6
2023-05-08T10:18:35.993Z,8.1
2023-05-08T10:21:37.951Z,7
2023-05-08T10:24:39.933Z,7.4
2023-05-08T10:27:41.881Z,8.7
2023-05-08T10:30:43.865Z,8
2023-05-08T10:33:45.810Z,7.4
2023-05-08T10:36:47.791Z,8.2
2023-05-08T10:39:49.734Z,7.7
2023-05-08T10:42:51.688Z,7.7
2023-05-08T10:45:53.711Z,6.9
2023-05-08T10:48:55.647Z,7.5
2023-05-08T10:51:57.582Z,6.6
2023-05-08T10:54:59.557Z,7.8
2023-05-08T10:58:01.517Z,6.7
2023-05-08T11:01:03.991Z,6.8
2023-05-08T11:04:05.564Z,6.8
2023-05-08T11:07:07.372Z,7
2023-05-08T11:10:09.363Z,6.6
2023-05-08T11:13:11.355Z,7.1
2023-05-08T11:16:13.308Z,6.5
2023-05-08T11:19:15.237Z,6.6
2023-05-08T11:22:17.206Z,5.9
2023-05-08T11:25:19.149Z,7.2
2023-05-08T11:28:21.095Z,6.5
2023-05-08T11:31:23.095Z,6.6
2023-05-08T11:34:25.023Z,7.5
2023-05-08T11:37:26.981Z,7.2
2023-05-08T11:40:28.963Z,6.9
2023-05-08T11:43:30.926Z,8.2
2023-05-08T11:46:35.989Z,7.1
2023-05-08T11:49:37.916Z,6.8
2023-05-08T11:52:39.884Z,7.3
2023-05-08T11:55:41.835Z,6.4
2023-05-08T11:58:43.811Z,6.7
2023-05-08T12:01:48.603Z,7.6
2023-05-08T12:04:48.029Z,7.5
2023-05-08T12:07:49.671Z,7.2
2023-05-08T12:10:51.644Z,7.9
2023-05-08T12:13:53.617Z,6
2023-05-08T12:17:01.584Z,6.4
2023-05-08T12:20:03.444Z,8.4
2023-05-08T12:23:05.394Z,6.7
2023-05-08T12:26:07.371Z,7.1
2023-05-08T12:29:09.401Z,7.3
2023-05-08T12:32:11.324Z,6.8
2023-05-08T12:35:13.291Z,7.8
2023-05-08T12:38:15.260Z,7.5
2023-05-08T12:41:19.959Z,7.7
2023-05-08T12:44:21.917Z,7.4
2023-05-08T12:47:23.952Z,6.2
2023-05-08T12:50:25.856Z,7.4
2023-05-08T12:53:30.627Z,7.8
2023-05-08T12:56:32.596Z,7.9
2023-05-08T12:59:34.547Z,8.5
2023-05-08T13:02:41.631Z,7.4
2023-05-08T13:05:38.482Z,8
2023-05-08T13:08:40.439Z,6.7
2023-05-08T13:11:42.430Z,6.5
2023-05-08T13:14:44.383Z,7.4
2023-05-08T13:17:46.380Z,8.7
2023-05-08T13:20:48.459Z,8
2023-05-08T13:23:50.271Z,6.9
2023-05-08T13:26:52.283Z,6.3
2023-05-08T13:29:54.252Z,6.2
2023-05-08T13:32:56.236Z,7.7
2023-05-08T13:35:58.176Z,8.1
2023-05-08T13:39:00.221Z,8.4
2023-05-08T13:42:02.146Z,6.4
2023-05-08T13:45:04.113Z,6.8
2023-05-08T13:48:06.116Z,6.9
2023-05-08T13:51:08.054Z,6
2023-05-08T13:54:10.006Z,7
2023-05-08T13:57:12.002Z,7.3
2023-05-08T14:00:14.080Z,6
2023-05-08T14:03:16.027Z,7.5
2023-05-08T14:06:17.897Z,6.9
2023-05-08T14:09:19.887Z,6
2023-05-08T14:12:21.812Z,6
2023-05-08T14:15:26.999Z,6.4
2023-05-08T14:18:25.812Z,5.3
2023-05-08T14:21:27.829Z,5.5
2023-05-08T14:24:29.728Z,6.5
2023-05-08T14:27:31.685Z,5.7
2023-05-08T14:30:33.677Z,5.4
2023-05-08T14:33:35.676Z,6.6
2023-05-08T14:36:37.610Z,5.4
2023-05-08T14:39:39.587Z,5.5
2023-05-08T14:42:41.609Z,5.8
2023-05-08T14:45:43.492Z,5.5
2023-05-08T14:48:45.462Z,4.6
2023-05-08T14:51:47.400Z,5.6
2023-05-08T14:54:49.485Z,5
2023-05-08T14:57:51.346Z,5.5
2023-05-08T15:00:56.029Z,6
2023-05-08T15:03:58.033Z,5.5
2023-05-08T15:06:59.952Z,5.4
2023-05-08T15:10:01.943Z,5.9
2023-05-08T15:13:03.955Z,5.1
2023-05-08T15:16:05.902Z,5
2023-05-08T15:19:07.805Z,4.8
2023-05-08T15:22:09.831Z,4.4
2023-05-08T15:25:11.735Z,4.5
2023-05-08T15:28:13.689Z,4
2023-05-08T15:31:15.692Z,4.5
2023-05-08T15:34:17.639Z,4.8
2023-05-08T15:37:19.587Z,4.6
2023-05-08T15:40:21.544Z,4.3
2023-05-08T15:43:23.506Z,4.2
2023-05-08T15:46:25.542Z,4.4
2023-05-08T15:49:27.464Z,5.6
2023-05-08T15:52:29.405Z,5.5
2023-05-08T15:55:31.393Z,4.9
2023-05-08T15:58:33.373Z,5.6
2023-05-08T16:01:35.352Z,4.6
2023-05-08T16:04:37.395Z,5.9
2023-05-08T16:07:39.355Z,5.2
2023-05-08T16:10:41.322Z,6.4
2023-05-08T16:13:43.354Z,6.2
2023-05-08T16:16:45.306Z,5.7
2023-05-08T16:19:47.268Z,5.9
2023-05-08T16:22:49.217Z,6
2023-05-08T16:25:51.557Z,5.7
2023-05-08T16:28:53.187Z,6.2
2023-05-08T16:31:55.243Z,5.9
2023-05-08T16:34:57.195Z,6.1
2023-05-08T16:37:59.151Z,6
2023-05-08T16:41:01.104Z,6
2023-05-08T16:44:03.081Z,5.6
2023-05-08T16:47:05.169Z,5.9
2023-05-08T16:50:07.183Z,5.3
2023-05-08T16:53:09.029Z,5.8
2023-05-08T16:56:11.080Z,6.4
2023-05-08T16:59:12.962Z,6.6
2023-05-08T17:02:15.001Z,6.4
2023-05-08T17:05:16.955Z,7.1
2023-05-08T17:08:18.920Z,5.8
2023-05-08T17:11:20.878Z,5.5
2023-05-08T17:14:22.897Z,5.9
2023-05-08T17:17:24.859Z,6.8
2023-05-08T17:20:26.813Z,6.4
2023-05-08T17:23:28.828Z,6.5
2023-05-08T17:26:30.828Z,6.1
2023-05-08T17:29:32.780Z,7.4
2023-05-08T17:32:34.824Z,6.9
2023-05-08T17:35:36.724Z,7.5
2023-05-08T17:38:38.718Z,7.4
2023-05-08T17:41:40.654Z,7.6
2023-05-08T17:44:42.678Z,7
2023-05-08T17:47:44.687Z,6.8
2023-05-08T17:50:46.627Z,7.8
2023-05-08T17:53:48.576Z,8.2
2023-05-08T17:56:50.584Z,7.2
2023-05-08T17:59:52.558Z,8
2023-05-08T18:02:54.617Z,7.3
2023-05-08T18:05:56.522Z,6.5
2023-05-08T18:08:58.492Z,7.8
2023-05-08T18:12:00.446Z,7.3
2023-05-08T18:15:02.413Z,8.1
2023-05-08T18:18:04.461Z,8.3
2023-05-08T18:21:06.376Z,8.1
2023-05-08T18:24:08.643Z,6.7
2023-05-08T18:27:10.289Z,7.8
2023-05-08T18:30:12.454Z,8.3
2023-05-08T18:33:14.205Z,7.2
2023-05-08T18:36:16.184Z,6.4
2023-05-08T18:39:18.202Z,6.4
2023-05-08T18:42:20.156Z,7.8
2023-05-08T18:45:22.098Z,8.7
2023-05-08T18:48:24.041Z,7.5
2023-05-08T18:51:26.048Z,6.9
2023-05-08T18:54:27.986Z,7.9
2023-05-08T18:57:29.941Z,7.1
2023-05-08T19:00:31.955Z,6.4
2023-05-08T19:03:33.990Z,8.4
2023-05-08T19:06:35.915Z,8.6
2023-05-08T19:09:37.848Z,7.4
2023-05-08T19:12:39.821Z,8.1
2023-05-08T19:15:41.829Z,7.3
2023-05-08T19:18:43.766Z,6.4
2023-05-08T19:21:45.696Z,8.2
2023-05-08T19:24:47.804Z,7.3
2023-05-08T19:27:49.643Z,7.8
2023-05-08T19:30:51.586Z,8
2023-05-08T19:33:53.529Z,7.4
2023-05-08T19:36:55.528Z,8.7
2023-05-08T19:39:57.475Z,6.7
2023-05-08T19:42:59.415Z,8
2023-05-08T19:46:04.181Z,7.4
2023-05-08T19:49:06.158Z,7.6
2023-05-08T19:52:08.244Z,8.3
2023-05-08T19:55:10.191Z,8.1
2023-05-08T19:58:12.166Z,7.7
2023-05-08T20:01:14.155Z,7.1
2023-05-08T20:04:16.110Z,8.2
2023-05-08T20:07:18.039Z,7.8
2023-05-08T20:10:20.043Z,10.5
2023-05-08T20:13:22.050Z,8.6
2023-05-08T20:16:23.979Z,8.3
2023-05-08T20:19:25.924Z,8.6
2023-05-08T20:22:27.877Z,11.3
2023-05-08T20:25:29.824Z,10.5
2023-05-08T20:28:31.790Z,8.7
2023-05-08T20:31:33.767Z,7.9
2023-05-08T20:34:35.744Z,8.8
2023-05-08T20:37:37.670Z,8
2023-05-08T20:40:39.626Z,10.3
2023-05-08T20:43:41.582Z,8.3
2023-05-08T20:46:43.547Z,10.6
2023-05-08T20:49:45.514Z,11.5
2023-05-08T20:52:47.454Z,9.7
2023-05-08T20:55:49.421Z,10.2
2023-05-08T20:58:51.436Z,10
2023-05-08T21:01:53.370Z,9.6
2023-05-08T21:04:55.368Z,9.4
2023-05-08T21:07:57.291Z,9.4
2023-05-08T21:10:59.236Z,10.4
2023-05-08T21:14:01.208Z,9.8
2023-05-08T21:17:03.229Z,10
2023-05-08T21:20:05.169Z,9.5
2023-05-08T21:23:07.090Z,9.7
2023-05-08T21:26:09.066Z,9.9
2023-05-08T21:29:11.032Z,10.2
2023-05-08T21:32:12.968Z,10.5
2023-05-08T21:35:15.137Z,10.1
2023-05-08T21:38:16.948Z,9.1
2023-05-08T21:41:18.880Z,8.6
2023-05-08T21:44:20.853Z,11.1
2023-05-08T21:47:22.857Z,12.1
2023-05-08T21:50:24.751Z,12
2023-05-08T21:53:26.711Z,11.3
2023-05-08T21:56:28.683Z,12.4
2023-05-08T21:59:30.655Z,11.4
2023-05-08T22:02:32.689Z,11.4
2023-05-08T22:05:34.581Z,11.6
2023-05-08T22:08:36.544Z,12.7
2023-05-08T22:11:38.515Z,11.7
2023-05-08T22:14:40.464Z,13
2023-05-08T22:17:42.455Z,12.6
2023-05-08T22:20:44.420Z,12.4
2023-05-08T22:23:46.367Z,13
2023-05-08T22:26:48.328Z,11
2023-05-08T22:29:50.305Z,12.4
2023-05-08T22:32:52.263Z,11.5
2023-05-08T22:35:54.223Z,13.1
2023-05-08T22:38:56.198Z,10.5
2023-05-08T22:41:58.168Z,10.6
2023-05-08T22:45:00.208Z,10.8
2023-05-08T22:48:02.150Z,10.5
2023-05-08T22:51:04.072Z,10.2
2023-05-08T22:54:06.045Z,12.8
2023-05-08T22:57:08.006Z,12.8
2023-05-08T23:00:09.988Z,11.3
2023-05-08T23:03:11.956Z,10.5
2023-05-08T23:06:13.915Z,11.6
2023-05-08T23:09:15.851Z,12.3
2023-05-08T23:12:17.845Z,12.1
2023-05-08T23:15:19.817Z,11.3
2023-05-08T23:18:21.774Z,10.4
2023-05-08T23:21:23.732Z,9.5
2023-05-08T23:24:25.696Z,10.1
2023-05-08T23:27:27.656Z,10.9
2023-05-08T23:30:29.651Z,13
2023-05-08T23:33:31.624Z,11.6
2023-05-08T23:36:33.574Z,11.3
2023-05-08T23:39:35.564Z,12.9
2023-05-08T23:42:37.703Z,11.6
2023-05-08T23:45:39.468Z,13.6
2023-05-08T23:48:41.482Z,10.5
2023-05-08T23:51:43.443Z,14.3
2023-05-08T23:54:45.405Z,10.7
2023-05-08T23:57:47.368Z,10.6
